Time;durP1;ratioP1;P1;durP2;ratioP2;P2;SDS_P1;SDS_P2;PMS_P1;PMS_P2;Temp;Humidity;BMP_temperature;BMP_pressure;BME280_temperature;BME280_humidity;BME280_pressure;Samples;Min_cycle;Max_cycle;Signal;HPM_P1;HPM_P2
2022/05/29 00:02:19;;;;;;;;;5.00;5.00;;;;;22.08;46.73;100271.46;110252;1264;18720;-48
2022/05/29 00:04:46;;;;;;;;;5.00;4.00;;;;;22.08;46.62;100267.48;110266;1264;22075;-48
2022/05/29 00:07:14;;;;;;;;;5.67;5.00;;;;;22.07;46.62;100261.45;110273;1263;20100;-47
2022/05/29 00:09:41;;;;;;;;;5.00;5.00;;;;;22.08;46.73;100265.80;110316;1264;20172;-48
2022/05/29 00:12:08;;;;;;;;;5.00;5.00;;;;;22.07;46.54;100262.09;110288;1264;18893;-48
2022/05/29 00:14:35;;;;;;;;;5.33;5.00;;;;;22.08;46.60;100260.01;110296;1264;19624;-48
2022/05/29 00:17:03;;;;;;;;;5.00;5.00;;;;;22.08;46.52;100255.87;110286;1264;18471;-48
2022/05/29 00:19:30;;;;;;;;;6.00;5.33;;;;;22.08;46.71;100250.77;110205;1264;19292;-48
2022/05/29 00:21:57;;;;;;;;;5.67;5.00;;;;;22.08;46.68;100250.34;110304;1264;20969;-48
2022/05/29 00:24:24;;;;;;;;;5.00;5.00;;;;;22.09;46.69;100250.85;110207;1264;20877;-47
2022/05/29 00:26:51;;;;;;;;;5.00;4.67;;;;;22.08;46.63;100247.73;110293;1264;18911;-48
2022/05/29 00:29:19;;;;;;;;;5.33;4.67;;;;;22.08;46.54;100240.69;110300;1264;19591;-48
2022/05/29 00:31:46;;;;;;;;;5.00;5.00;;;;;22.08;46.51;100243.15;110281;1264;22202;-48
2022/05/29 00:34:13;;;;;;;;;5.00;5.00;;;;;22.07;46.60;100240.46;110277;1264;22278;-48
2022/05/29 00:36:40;;;;;;;;;4.00;4.00;;;;;22.07;46.64;100240.00;110310;1264;19757;-48
2022/05/29 00:39:09;;;;;;;;;4.00;4.00;;;;;22.07;46.67;100242.98;110236;1262;18496;-48
2022/05/29 00:41:36;;;;;;;;;5.00;5.00;;;;;22.08;46.56;100240.25;110245;1262;18695;-47
2022/05/29 00:44:04;;;;;;;;;6.00;5.67;;;;;22.08;46.41;100240.48;110181;1264;19486;-48
2022/05/29 00:46:31;;;;;;;;;5.00;5.00;;;;;22.09;46.66;100240.68;110190;1264;18537;-49
2022/05/29 00:48:58;;;;;;;;;5.00;5.00;;;;;22.09;46.48;100240.15;110174;1264;22835;-45
2022/05/29 00:51:25;;;;;;;;;5.00;4.00;;;;;22.09;46.58;100243.34;110265;1264;20388;-48
2022/05/29 00:53:53;;;;;;;;;5.67;5.00;;;;;22.09;46.31;100241.33;110124;1264;18608;-47
2022/05/29 00:56:20;;;;;;;;;4.00;4.00;;;;;22.10;46.45;100242.30;110277;1263;22844;-47
2022/05/29 00:58:47;;;;;;;;;8.00;5.00;;;;;22.09;46.34;100242.25;110277;1264;19502;-49
2022/05/29 01:01:15;;;;;;;;;4.00;4.00;;;;;22.09;46.65;100247.67;110281;1264;18656;-48
2022/05/29 01:03:42;;;;;;;;;5.50;5.00;;;;;22.09;46.39;100248.39;110309;1264;21164;-48
2022/05/29 01:06:09;;;;;;;;;5.50;5.00;;;;;22.10;46.24;100249.54;110301;1264;20611;-48
2022/05/29 01:08:37;;;;;;;;;5.00;4.00;;;;;22.10;46.56;100247.89;110272;1264;21091;-49
2022/05/29 01:11:04;;;;;;;;;4.00;4.00;;;;;22.11;46.30;100250.41;110232;1264;22716;-45
2022/05/29 01:13:31;;;;;;;;;6.00;5.00;;;;;22.11;46.40;100251.67;110259;1264;19629;-48
2022/05/29 01:15:58;;;;;;;;;4.33;4.33;;;;;22.08;46.45;100244.38;110175;1264;23728;-47
2022/05/29 01:18:26;;;;;;;;;5.00;4.33;;;;;22.09;46.37;100247.52;110302;1262;18757;-51
2022/05/29 01:20:53;;;;;;;;;5.00;5.00;;;;;22.10;46.33;100243.20;110267;1264;19631;-47
2022/05/29 01:23:20;;;;;;;;;4.00;4.00;;;;;22.11;46.38;100243.13;110260;1263;20007;-47
2022/05/29 01:25:48;;;;;;;;;5.00;5.00;;;;;22.10;46.34;100239.40;110277;1264;19033;-48
2022/05/29 01:28:15;;;;;;;;;4.00;4.00;;;;;22.08;46.33;100235.40;110272;1264;22852;-49
2022/05/29 01:30:42;;;;;;;;;6.00;5.33;;;;;22.08;46.55;100238.00;110329;1263;18417;-48
2022/05/29 01:33:09;;;;;;;;;5.00;5.00;;;;;22.09;46.45;100234.65;110273;1264;20021;-48
2022/05/29 01:35:36;;;;;;;;;3.00;3.00;;;;;22.09;46.44;100232.48;110271;1264;19499;-49
2022/05/29 01:38:04;;;;;;;;;4.00;4.00;;;;;22.09;46.28;100233.05;110277;1264;18783;-48
2022/05/29 01:40:31;;;;;;;;;4.00;4.00;;;;;22.08;46.33;100231.40;110249;1264;18861;-47
2022/05/29 01:42:58;;;;;;;;;4.67;4.00;;;;;22.07;46.34;100229.20;110306;1263;22178;-49
2022/05/29 01:45:25;;;;;;;;;5.00;5.00;;;;;22.08;46.39;100230.36;110244;1263;18518;-47
2022/05/29 01:47:52;;;;;;;;;4.50;4.00;;;;;22.08;46.42;100232.16;110246;1264;18966;-44
2022/05/29 01:50:20;;;;;;;;;4.00;4.00;;;;;22.09;46.44;100235.33;110248;1262;20310;-46
2022/05/29 01:52:47;;;;;;;;;5.00;4.33;;;;;22.08;46.36;100235.09;110160;1262;22658;-48
2022/05/29 01:55:14;;;;;;;;;6.00;5.67;;;;;22.08;46.38;100236.40;110281;1262;18872;-47
2022/05/29 01:57:42;;;;;;;;;4.33;4.00;;;;;22.07;46.52;100237.95;110312;1264;19489;-47
2022/05/29 02:00:09;;;;;;;;;6.00;5.67;;;;;22.06;46.29;100234.45;110274;1263;23431;-48
2022/05/29 02:02:36;;;;;;;;;4.50;4.50;;;;;22.06;46.34;100233.42;110280;1263;18785;-44
2022/05/29 02:05:04;;;;;;;;;4.00;4.00;;;;;22.06;46.45;100235.04;110254;1263;20254;-48
2022/05/29 02:07:49;;;;;;;;;4.00;4.00;;;;;22.06;46.40;100238.15;110270;1263;18507;-46
2022/05/29 02:10:16;;;;;;;;;5.67;5.67;;;;;22.05;46.45;100238.55;110286;1264;18696;-48
2022/05/29 02:12:44;;;;;;;;;5.00;4.00;;;;;22.06;46.38;100236.76;110308;1264;19499;-47
2022/05/29 02:15:11;;;;;;;;;4.00;4.00;;;;;22.07;46.37;100238.20;110242;1263;18716;-48
2022/05/29 02:17:39;;;;;;;;;5.00;5.00;;;;;22.05;46.46;100235.61;110277;1263;22410;-48
2022/05/29 02:20:06;;;;;;;;;4.50;4.50;;;;;22.05;46.53;100236.37;110244;1263;19542;-47
2022/05/29 02:22:35;;;;;;;;;4.50;4.50;;;;;22.04;46.29;100233.58;110279;1264;22130;-47
2022/05/29 02:25:02;;;;;;;;;5.33;4.67;;;;;22.04;46.50;100233.03;110276;1264;24441;-47
2022/05/29 02:27:29;;;;;;;;;8.67;6.00;;;;;22.05;46.48;100239.69;110320;1264;22197;-47
2022/05/29 02:29:57;;;;;;;;;5.00;5.00;;;;;22.06;46.41;100234.48;110293;1264;18675;-48
2022/05/29 02:32:24;;;;;;;;;5.67;5.00;;;;;22.06;46.40;100234.44;110295;1264;18895;-48
2022/05/29 02:34:51;;;;;;;;;4.67;4.67;;;;;22.05;46.54;100234.42;110283;1262;19487;-48
2022/05/29 02:37:18;;;;;;;;;5.00;5.00;;;;;22.05;46.32;100236.45;110296;1262;18658;-48
2022/05/29 02:39:46;;;;;;;;;5.00;4.00;;;;;22.05;46.49;100237.66;110343;1262;18750;-48
2022/05/29 02:42:13;;;;;;;;;5.00;4.00;;;;;22.04;46.55;100236.32;110314;1262;22013;-45
2022/05/29 02:44:41;;;;;;;;;4.33;4.33;;;;;22.05;46.32;100240.73;110290;1262;18452;-48
2022/05/29 02:47:08;;;;;;;;;5.00;4.33;;;;;22.05;46.39;100239.17;110269;1262;18869;-48
2022/05/29 02:49:35;;;;;;;;;4.00;4.00;;;;;22.04;46.54;100243.91;110286;1264;19541;-47
2022/05/29 02:52:02;;;;;;;;;4.00;4.00;;;;;22.05;46.42;100245.73;110234;1262;18687;-51
2022/05/29 02:54:29;;;;;;;;;6.00;5.33;;;;;22.05;46.45;100248.45;110326;1263;22683;-49
2022/05/29 02:56:57;;;;;;;;;6.00;6.00;;;;;22.05;46.40;100247.52;110285;1264;20867;-47
2022/05/29 02:59:24;;;;;;;;;5.00;5.00;;;;;22.05;46.58;100251.86;110265;1262;18491;-49
2022/05/29 03:01:51;;;;;;;;;6.00;6.00;;;;;22.04;46.37;100253.60;110309;1264;18914;-48
2022/05/29 03:04:18;;;;;;;;;4.00;4.00;;;;;22.04;46.34;100257.52;110232;1264;19618;-48
2022/05/29 03:06:46;;;;;;;;;4.00;4.00;;;;;22.03;46.63;100255.33;110318;1264;18602;-49
2022/05/29 03:09:13;;;;;;;;;5.00;5.00;;;;;22.03;46.47;100262.67;110269;1264;18909;-48
2022/05/29 03:11:40;;;;;;;;;5.00;5.00;;;;;22.03;46.30;100263.64;110203;1264;21186;-48
2022/05/29 03:14:07;;;;;;;;;5.67;5.00;;;;;22.03;46.47;100268.34;110267;1263;22849;-47
2022/05/29 03:16:34;;;;;;;;;2.00;2.00;;;;;22.03;46.26;100269.84;110286;1264;18882;-49
2022/05/29 03:19:02;;;;;;;;;4.00;4.00;;;;;22.04;46.44;100274.69;110322;1264;22801;-48
2022/05/29 03:21:29;;;;;;;;;5.00;5.00;;;;;22.03;46.29;100275.05;110287;1264;18410;-48
2022/05/29 03:23:56;;;;;;;;;5.00;5.00;;;;;22.04;46.41;100276.02;110285;1264;19076;-48
2022/05/29 03:26:23;;;;;;;;;5.00;5.00;;;;;22.02;46.59;100275.76;110281;1264;19835;-48
2022/05/29 03:28:51;;;;;;;;;5.33;5.00;;;;;22.01;46.49;100282.18;110232;1264;20178;-47
2022/05/29 03:31:18;;;;;;;;;6.00;6.00;;;;;22.01;46.46;100281.67;110254;1264;18831;-47
2022/05/29 03:33:45;;;;;;;;;5.00;4.00;;;;;22.02;46.49;100284.45;110290;1264;19809;-45
2022/05/29 03:36:14;;;;;;;;;5.33;5.00;;;;;22.02;46.60;100283.79;110303;1262;22731;-47
2022/05/29 03:38:42;;;;;;;;;5.00;5.00;;;;;22.01;46.48;100286.55;110317;1262;18701;-49
2022/05/29 03:41:09;;;;;;;;;4.33;4.33;;;;;22.02;46.36;100284.63;110283;1264;19642;-49
2022/05/29 03:43:36;;;;;;;;;5.00;5.00;;;;;22.02;46.35;100286.05;110284;1263;22268;-48
2022/05/29 03:46:04;;;;;;;;;5.33;5.00;;;;;22.02;46.38;100289.54;110315;1264;18849;-47
2022/05/29 03:48:32;;;;;;;;;6.00;6.00;;;;;22.02;46.50;100289.75;110309;1263;19621;-49
2022/05/29 03:50:59;;;;;;;;;5.33;5.33;;;;;22.01;46.41;100288.20;110286;1263;18454;-47
2022/05/29 03:53:26;;;;;;;;;6.00;5.00;;;;;22.01;46.43;100290.37;110276;1262;23202;-48
2022/05/29 03:55:53;;;;;;;;;5.00;5.00;;;;;22.02;46.29;100289.95;110263;1262;19973;-47
2022/05/29 03:58:20;;;;;;;;;6.67;6.00;;;;;22.02;46.33;100287.94;110260;1264;18545;-47
2022/05/29 04:00:48;;;;;;;;;6.00;6.00;;;;;22.01;46.33;100286.23;110290;1262;18920;-47
2022/05/29 04:03:15;;;;;;;;;5.00;5.00;;;;;22.01;46.48;100287.65;110270;1263;19804;-47
2022/05/29 04:05:42;;;;;;;;;5.00;5.00;;;;;22.03;46.42;100292.18;110265;1264;18598;-46
2022/05/29 04:13:40;;;;;;;;;4.67;4.67;;;;;22.01;46.61;100301.91;110268;1264;18913;-48
2022/05/29 04:16:07;;;;;;;;;5.00;5.00;;;;;22.01;46.37;100299.59;110271;1264;18919;-49
2022/05/29 04:18:34;;;;;;;;;5.00;5.00;;;;;22.00;46.44;100303.80;110284;1262;19834;-46
2022/05/29 04:21:01;;;;;;;;;9.00;6.00;;;;;22.00;46.35;100304.17;110293;1262;18444;-51
2022/05/29 04:23:28;;;;;;;;;6.67;6.67;;;;;22.00;46.42;100305.13;110307;1262;20294;-47
2022/05/29 04:25:56;;;;;;;;;5.50;5.00;;;;;21.99;46.42;100304.08;110313;1262;19661;-49
2022/05/29 04:28:23;;;;;;;;;6.00;6.00;;;;;22.00;46.40;100305.88;110303;1262;20025;-48
2022/05/29 04:30:50;;;;;;;;;7.00;7.00;;;;;22.00;46.33;100305.16;110369;1261;20021;-47
2022/05/29 04:33:17;;;;;;;;;9.00;6.00;;;;;22.00;46.40;100306.35;110276;1262;19490;-49
2022/05/29 04:35:44;;;;;;;;;6.00;5.67;;;;;22.00;46.46;100306.90;110277;1262;18496;-49
2022/05/29 04:38:12;;;;;;;;;7.33;6.00;;;;;22.00;46.33;100305.81;110301;1262;22935;-44
2022/05/29 04:40:39;;;;;;;;;8.00;8.00;;;;;22.01;46.41;100311.70;110237;1262;20941;-46
2022/05/29 04:43:06;;;;;;;;;9.00;8.00;;;;;22.01;46.31;100309.89;110292;1264;18765;-49
2022/05/29 04:45:33;;;;;;;;;8.00;6.00;;;;;22.00;46.28;100306.42;110134;1264;18845;-47
2022/05/29 04:48:01;;;;;;;;;6.00;6.00;;;;;22.00;46.28;100310.67;110233;1264;19611;-48
2022/05/29 04:50:28;;;;;;;;;8.00;7.33;;;;;22.00;46.36;100310.96;110278;1264;18566;-48
2022/05/29 04:52:55;;;;;;;;;6.67;6.00;;;;;22.00;46.36;100310.41;110290;1264;18768;-48
2022/05/29 04:55:23;;;;;;;;;6.00;6.00;;;;;21.99;46.27;100310.07;110289;1263;19487;-47
2022/05/29 04:57:50;;;;;;;;;9.00;8.00;;;;;21.99;46.13;100316.63;110336;1264;18501;-48
2022/05/29 05:00:17;;;;;;;;;7.67;7.33;;;;;22.03;46.28;100316.41;110227;1264;21936;-48
2022/05/29 05:02:44;;;;;;;;;9.00;9.00;;;;;22.05;46.64;100318.79;110242;1264;19652;-50
2022/05/29 05:05:11;;;;;;;;;9.33;8.33;;;;;22.13;48.68;100318.36;110290;1263;18541;-48
2022/05/29 05:07:39;;;;;;;;;9.00;8.00;;;;;22.14;48.12;100323.52;110268;1264;18876;-48
2022/05/29 05:10:06;;;;;;;;;9.00;8.67;;;;;22.13;48.23;100325.87;110181;1263;19556;-47
2022/05/29 05:12:33;;;;;;;;;9.00;8.00;;;;;22.12;47.97;100328.67;110251;1263;18478;-47
2022/05/29 05:15:00;;;;;;;;;9.00;8.33;;;;;22.11;48.21;100329.33;110238;1264;18776;-49
2022/05/29 05:17:27;;;;;;;;;6.00;6.00;;;;;22.12;48.23;100334.84;110176;1264;22130;-47
2022/05/29 05:19:55;;;;;;;;;10.67;10.00;;;;;22.17;48.39;100336.31;110278;1264;18525;-47
2022/05/29 05:22:22;;;;;;;;;9.00;9.00;;;;;22.19;48.03;100335.53;110274;1264;21572;-48
2022/05/29 05:24:49;;;;;;;;;8.00;8.00;;;;;22.19;47.72;100332.80;110337;1264;19734;-49
2022/05/29 05:27:16;;;;;;;;;8.67;8.67;;;;;22.16;47.82;100336.73;110291;1264;18461;-47
2022/05/29 05:29:44;;;;;;;;;10.67;10.00;;;;;22.13;47.80;100333.42;110290;1263;18780;-46
2022/05/29 05:32:11;;;;;;;;;9.00;8.00;;;;;22.15;47.54;100338.68;110293;1264;20116;-47
2022/05/29 05:34:40;;;;;;;;;10.00;9.00;;;;;22.14;47.80;100336.41;110291;1263;19942;-47
2022/05/29 05:37:07;;;;;;;;;6.00;6.00;;;;;22.19;48.10;100341.33;110288;1264;21917;-49
2022/05/29 05:39:35;;;;;;;;;10.00;10.00;;;;;22.21;48.28;100337.94;110274;1264;22026;-47
2022/05/29 05:42:02;;;;;;;;;10.00;9.00;;;;;22.22;48.37;100338.51;110046;1263;281581;-48
2022/05/29 05:44:29;;;;;;;;;9.00;8.00;;;;;22.27;48.59;100339.68;110266;1264;19837;-48
2022/05/29 05:46:56;;;;;;;;;10.00;9.00;;;;;22.31;48.79;100342.31;110183;1262;19631;-49
2022/05/29 05:49:30;;;;;;;;;10.00;10.00;;;;;22.32;48.70;100344.89;110249;1263;18688;-47
2022/05/29 05:51:57;;;;;;;;;10.00;9.00;;;;;22.35;48.76;100350.02;110303;1264;18707;-47
2022/05/29 05:54:24;;;;;;;;;8.67;8.00;;;;;22.35;48.69;100349.24;110290;1262;23908;-47
2022/05/29 05:56:51;;;;;;;;;10.50;9.50;;;;;22.35;48.60;100354.43;110275;1263;18840;-46
2022/05/29 05:59:18;;;;;;;;;8.00;8.00;;;;;22.34;48.48;100353.17;110250;1264;21291;-48
2022/05/29 06:01:46;;;;;;;;;9.00;8.00;;;;;22.35;48.53;100357.19;110263;1264;19500;-47
2022/05/29 06:04:13;;;;;;;;;8.00;6.00;;;;;22.37;48.74;100357.24;110293;1264;22327;-47
2022/05/29 06:06:40;;;;;;;;;12.67;10.00;;;;;22.39;48.93;100360.41;110295;1264;19002;-45
2022/05/29 06:09:07;;;;;;;;;9.00;9.00;;;;;22.39;50.16;100366.54;110277;1264;19888;-46
2022/05/29 06:11:39;;;;;;;;;12.00;10.00;;;;;22.41;49.83;100368.86;110321;1262;22751;-44
2022/05/29 06:14:06;;;;;;;;;12.33;9.00;;;;;22.39;49.68;100371.23;110257;1264;18875;-46
2022/05/29 06:16:33;;;;;;;;;11.00;10.00;;;;;22.39;49.61;100375.95;110251;1264;21719;-46
2022/05/29 06:19:02;;;;;;;;;10.00;9.00;;;;;22.39;49.59;100373.48;110341;1264;20929;-47
2022/05/29 06:21:29;;;;;;;;;12.00;10.00;;;;;22.39;49.37;100370.36;110281;1264;18738;-48
2022/05/29 06:23:57;;;;;;;;;10.00;9.67;;;;;22.40;49.35;100373.02;110296;1263;19611;-48
2022/05/29 06:26:24;;;;;;;;;10.67;10.67;;;;;22.40;49.36;100371.48;110284;1264;21900;-47
2022/05/29 06:28:51;;;;;;;;;12.00;9.67;;;;;22.41;49.05;100375.92;110276;1264;22233;-47
2022/05/29 06:31:18;;;;;;;;;10.00;9.33;;;;;22.42;48.90;100378.38;110267;1263;19645;-46
2022/05/29 06:33:46;;;;;;;;;10.00;9.00;;;;;22.42;48.76;100375.83;110304;1263;18800;-47
2022/05/29 06:36:13;;;;;;;;;10.00;10.00;;;;;22.38;48.87;100372.09;110177;1263;22856;-47
2022/05/29 06:38:40;;;;;;;;;9.67;9.33;;;;;22.36;48.69;100373.08;110180;1264;19455;-47
2022/05/29 06:41:08;;;;;;;;;11.33;10.00;;;;;22.35;48.83;100374.13;110314;1263;18945;-47
2022/05/29 06:43:35;;;;;;;;;12.33;10.00;;;;;22.30;48.65;100376.48;110108;1263;23494;-44
2022/05/29 06:46:02;;;;;;;;;9.33;9.00;;;;;22.30;48.90;100378.51;110294;1264;19719;-45
2022/05/29 06:48:31;;;;;;;;;8.33;8.33;;;;;22.32;49.39;100385.42;110110;1263;22803;-48
2022/05/29 06:50:58;;;;;;;;;10.00;10.00;;;;;22.34;50.06;100382.16;110037;1264;18698;-43
2022/05/29 06:53:26;;;;;;;;;9.67;9.67;;;;;22.33;50.16;100387.66;110421;1263;19805;-49
2022/05/29 06:55:53;;;;;;;;;10.00;9.33;;;;;22.34;49.98;100390.14;110199;1264;18910;-45
2022/05/29 06:58:20;;;;;;;;;9.67;9.33;;;;;22.34;50.06;100390.47;110303;1264;18880;-46
2022/05/29 07:09:04;;;;;;;;;11.33;10.00;;;;;22.39;49.29;100395.10;110257;1264;19487;-47
2022/05/29 07:11:31;;;;;;;;;12.00;10.00;;;;;22.40;49.22;100401.36;110246;1263;18797;-45
2022/05/29 07:13:58;;;;;;;;;12.33;11.00;;;;;22.38;48.85;100402.73;110284;1264;19032;-46
2022/05/29 07:16:26;;;;;;;;;10.00;9.50;;;;;22.37;48.84;100399.54;110266;1264;19734;-47
2022/05/29 07:18:54;;;;;;;;;11.33;9.67;;;;;22.42;49.24;100401.14;110306;1264;19092;-49
2022/05/29 07:21:21;;;;;;;;;12.67;10.67;;;;;22.43;48.99;100401.02;110244;1263;18746;-48
2022/05/29 07:23:48;;;;;;;;;10.00;9.00;;;;;22.43;49.17;100401.37;110269;1263;19550;-47
2022/05/29 07:26:16;;;;;;;;;11.67;9.00;;;;;22.43;49.02;100406.70;110262;1264;22271;-47
2022/05/29 07:28:43;;;;;;;;;13.33;12.67;;;;;22.47;49.05;100407.48;110283;1263;18806;-49
2022/05/29 07:31:11;;;;;;;;;10.33;10.00;;;;;22.46;48.98;100410.33;110173;1264;21876;-46
2022/05/29 07:33:39;;;;;;;;;12.00;11.33;;;;;22.45;49.07;100407.42;110235;1264;19411;-46
2022/05/29 07:36:06;;;;;;;;;10.00;10.00;;;;;22.48;49.08;100410.98;110252;1264;19044;-46
2022/05/29 07:38:33;;;;;;;;;10.00;9.00;;;;;22.50;48.93;100405.51;110264;1263;19580;-47
2022/05/29 07:41:00;;;;;;;;;9.67;9.67;;;;;22.51;48.86;100404.12;110281;1264;18891;-45
2022/05/29 07:43:28;;;;;;;;;10.00;9.33;;;;;22.52;48.92;100403.83;110281;1264;18909;-45
2022/05/29 07:45:56;;;;;;;;;9.00;9.00;;;;;22.51;48.87;100403.65;110316;1264;19632;-46
2022/05/29 07:48:24;;;;;;;;;8.67;8.00;;;;;22.52;48.91;100405.55;110291;1262;18852;-49
2022/05/29 07:50:51;;;;;;;;;11.33;10.00;;;;;22.54;48.72;100408.91;110130;1264;21817;-46
2022/05/29 07:53:19;;;;;;;;;11.00;10.00;;;;;22.52;48.63;100412.79;110017;1264;19949;-46
2022/05/29 07:55:46;;;;;;;;;10.33;10.00;;;;;22.47;48.30;100410.52;110089;1264;18877;-47
2022/05/29 07:58:13;;;;;;;;;12.00;12.00;;;;;22.42;48.48;100412.91;110285;1264;20397;-47
2022/05/29 08:00:40;;;;;;;;;9.33;9.00;;;;;22.38;48.46;100414.59;110233;1264;22213;-48
2022/05/29 08:03:08;;;;;;;;;11.00;11.00;;;;;22.36;48.40;100416.34;110068;1262;23947;-47
2022/05/29 08:05:36;;;;;;;;;9.67;9.67;;;;;22.38;48.30;100414.76;110195;1262;20451;-46
2022/05/29 08:08:04;;;;;;;;;13.00;12.00;;;;;22.36;48.02;100417.15;110183;1262;19618;-48
2022/05/29 08:10:32;;;;;;;;;12.00;12.00;;;;;22.32;47.64;100414.95;110255;1262;18502;-48
2022/05/29 08:13:00;;;;;;;;;9.33;9.33;;;;;22.23;47.42;100418.13;110284;1262;18929;-47
2022/05/29 08:15:29;;;;;;;;;11.67;10.67;;;;;22.18;47.08;100418.23;110264;1262;19594;-48
2022/05/29 08:17:56;;;;;;;;;13.00;13.00;;;;;22.14;46.92;100418.92;110160;1262;19002;-48
2022/05/29 08:20:24;;;;;;;;;12.33;12.00;;;;;22.10;46.76;100417.60;110154;1262;18995;-49
2022/05/29 08:22:51;;;;;;;;;9.33;9.33;;;;;22.05;46.55;100412.20;110247;1264;21943;-47
2022/05/29 08:30:51;;;;;;;;;10.00;10.00;;;;;22.30;47.12;100413.42;110220;1262;19531;-47
2022/05/29 08:33:18;;;;;;;;;8.00;8.00;;;;;22.35;47.24;100408.05;110220;1262;18490;-48
2022/05/29 08:35:46;;;;;;;;;12.00;10.00;;;;;22.44;47.34;100409.27;110210;1262;18821;-48
2022/05/29 08:38:13;;;;;;;;;10.00;9.33;;;;;22.50;47.34;100410.30;110237;1262;19840;-47
2022/05/29 08:40:40;;;;;;;;;10.67;9.00;;;;;22.54;47.43;100409.81;110229;1262;22269;-48
2022/05/29 08:43:07;;;;;;;;;13.33;10.00;;;;;22.52;47.45;100415.73;110341;1262;21431;-47
2022/05/29 08:45:35;;;;;;;;;12.00;11.00;;;;;22.47;47.29;100412.27;110267;1262;22781;-46
2022/05/29 08:48:02;;;;;;;;;16.00;13.67;;;;;22.44;47.21;100415.83;110294;1264;18906;-47
2022/05/29 08:50:30;;;;;;;;;11.00;11.00;;;;;22.37;47.14;100415.26;110283;1264;22399;-50
2022/05/29 08:52:57;;;;;;;;;12.67;12.00;;;;;22.32;47.31;100415.88;110241;1264;19601;-52
2022/05/29 08:55:24;;;;;;;;;13.33;10.67;;;;;22.32;47.26;100416.42;110261;1262;18730;-46
2022/05/29 08:57:52;;;;;;;;;13.00;12.00;;;;;22.30;46.80;100418.88;110272;1264;20338;-47
2022/05/29 09:00:19;;;;;;;;;13.00;12.00;;;;;22.28;46.89;100423.80;110220;1264;19625;-47
2022/05/29 09:02:47;;;;;;;;;11.00;11.00;;;;;22.29;46.71;100419.91;110120;1264;18888;-47
2022/05/29 09:05:14;;;;;;;;;14.00;13.00;;;;;22.30;46.80;100420.14;110243;1265;22816;-48
2022/05/29 09:07:41;;;;;;;;;13.00;12.00;;;;;22.34;46.38;100424.75;110243;1263;20498;-48
2022/05/29 09:10:08;;;;;;;;;12.67;12.00;;;;;22.31;46.34;100423.33;110230;1264;21218;-47
2022/05/29 09:12:35;;;;;;;;;10.67;10.67;;;;;22.24;46.01;100426.55;110068;1264;18891;-47
2022/05/29 09:15:03;;;;;;;;;9.67;9.67;;;;;22.19;45.76;100425.58;110142;1264;19918;-49
2022/05/29 09:17:31;;;;;;;;;10.00;9.00;;;;;22.14;45.68;100423.84;110200;1264;22856;-48
2022/05/29 09:19:58;;;;;;;;;13.67;11.33;;;;;22.10;45.54;100427.20;110306;1264;18901;-47
2022/05/29 09:22:27;;;;;;;;;13.00;13.00;;;;;22.09;45.42;100426.75;110222;1263;19709;-46
2022/05/29 09:24:55;;;;;;;;;15.00;13.00;;;;;22.08;45.59;100424.69;110337;1263;18734;-47
2022/05/29 09:27:22;;;;;;;;;12.00;12.00;;;;;22.09;45.34;100429.27;110281;1264;20153;-48
2022/05/29 09:29:49;;;;;;;;;12.00;10.00;;;;;22.09;45.45;100430.58;110267;1264;22002;-48
2022/05/29 09:32:16;;;;;;;;;12.50;10.00;;;;;22.08;45.33;100426.31;110244;1264;19134;-49
2022/05/29 09:34:43;;;;;;;;;13.67;13.00;;;;;22.06;45.30;100425.70;110243;1264;19456;-48
2022/05/29 09:37:11;;;;;;;;;14.00;13.33;;;;;22.03;45.36;100425.61;110307;1264;20493;-48
2022/05/29 09:39:38;;;;;;;;;12.00;12.00;;;;;22.02;45.35;100427.48;110265;1262;20190;-47
2022/05/29 09:42:05;;;;;;;;;13.00;10.67;;;;;21.98;45.33;100425.55;110250;1261;19689;-47
2022/05/29 09:44:33;;;;;;;;;12.67;12.00;;;;;21.96;45.09;100424.73;110220;1263;20350;-47
2022/05/29 09:49:49;;;;;;;;;13.00;13.00;;;;;21.96;44.95;100421.42;110275;1264;19743;-48
2022/05/29 09:52:17;;;;;;;;;10.00;9.00;;;;;21.98;44.97;100421.23;110296;1264;21201;-47
2022/05/29 09:54:45;;;;;;;;;12.67;11.33;;;;;21.99;45.22;100421.91;110287;1263;19177;-47
2022/05/29 09:57:12;;;;;;;;;12.00;10.67;;;;;21.92;45.26;100428.92;110246;1262;19845;-48
2022/05/29 09:59:39;;;;;;;;;10.00;10.00;;;;;21.89;45.23;100425.49;110239;1264;20299;-48
2022/05/29 10:02:06;;;;;;;;;11.33;9.67;;;;;21.90;45.00;100420.98;110292;1263;19051;-48
2022/05/29 10:04:34;;;;;;;;;9.00;9.00;;;;;21.91;44.82;100421.78;110265;1264;21019;-46
2022/05/29 10:07:01;;;;;;;;;9.50;9.50;;;;;21.92;44.91;100420.02;110226;1264;22672;-46
2022/05/29 10:09:30;;;;;;;;;9.00;9.00;;;;;21.93;45.03;100417.73;110237;1263;19234;-47
2022/05/29 10:11:58;;;;;;;;;12.00;12.00;;;;;21.94;44.75;100417.00;110274;1264;23810;-46
2022/05/29 10:14:26;;;;;;;;;10.00;9.67;;;;;21.95;44.74;100420.06;110210;1264;23569;-46
2022/05/29 10:16:54;;;;;;;;;12.50;12.00;;;;;21.93;44.79;100418.58;110265;1264;19216;-47
2022/05/29 10:19:21;;;;;;;;;15.33;13.00;;;;;21.91;44.47;100419.48;110285;1264;22447;-48
2022/05/29 10:21:50;;;;;;;;;13.00;12.00;;;;;21.90;44.55;100417.96;110297;1263;20315;-49
2022/05/29 10:24:17;;;;;;;;;13.00;12.00;;;;;21.90;44.28;100417.95;110232;1264;19298;-48
2022/05/29 10:26:44;;;;;;;;;12.67;12.00;;;;;21.90;44.20;100415.85;110251;1264;20372;-49
2022/05/29 10:29:12;;;;;;;;;15.33;14.00;;;;;21.92;44.07;100422.75;110209;1263;20553;-47
2022/05/29 10:31:39;;;;;;;;;16.67;13.67;;;;;21.91;43.93;100420.98;110325;1262;19311;-46
2022/05/29 10:34:06;;;;;;;;;11.33;11.33;;;;;21.91;44.11;100417.30;110272;1264;22775;-48
2022/05/29 10:36:33;;;;;;;;;10.00;10.00;;;;;21.94;44.40;100417.54;110206;1264;20589;-49
2022/05/29 10:39:01;;;;;;;;;12.50;12.00;;;;;22.02;44.54;100420.65;110214;1264;23019;-47
2022/05/29 10:41:28;;;;;;;;;14.00;13.00;;;;;22.10;44.66;100422.95;110263;1264;19688;-48
2022/05/29 10:43:56;;;;;;;;;13.00;12.50;;;;;22.17;44.80;100423.61;110216;1264;22798;-49
2022/05/29 10:46:26;;;;;;;;;17.00;16.00;;;;;22.21;45.09;100420.05;110208;1264;19122;-46
2022/05/29 10:48:54;;;;;;;;;16.00;16.00;;;;;22.24;46.44;100422.22;110238;1264;19639;-46
2022/05/29 10:51:21;;;;;;;;;14.00;14.00;;;;;22.25;46.98;100425.23;110222;1264;20270;-46
2022/05/29 10:53:48;;;;;;;;;18.00;17.00;;;;;22.25;46.80;100427.31;110256;1264;19556;-48
2022/05/29 10:56:15;;;;;;;;;17.00;14.67;;;;;22.24;46.88;100422.02;110190;1264;23139;-46
2022/05/29 10:58:43;;;;;;;;;18.00;16.00;;;;;22.25;47.20;100418.66;110268;1262;20505;-46
2022/05/29 11:03:17;;;;;;;;;20.33;17.67;;;;;22.28;47.30;100419.73;110198;1263;19146;-49
2022/05/29 11:03:57;;;;;;;;;18.00;16.50;;;;;22.28;47.42;100415.91;110274;1262;19791;-49
2022/05/29 11:06:24;;;;;;;;;18.00;17.00;;;;;22.30;47.61;100422.16;110143;1262;20628;-48
2022/05/29 11:08:52;;;;;;;;;18.00;17.00;;;;;22.33;47.86;100414.80;110129;1264;19243;-48
2022/05/29 11:11:19;;;;;;;;;17.00;15.33;;;;;22.34;47.94;100415.77;110281;1262;21116;-49
2022/05/29 11:13:46;;;;;;;;;16.67;14.00;;;;;22.33;48.31;100417.44;110230;1264;23646;-47
2022/05/29 11:16:13;;;;;;;;;16.00;14.00;;;;;22.32;48.31;100415.04;110259;1263;19168;-48
2022/05/29 11:18:41;;;;;;;;;14.67;13.00;;;;;22.32;47.78;100413.11;110231;1263;19835;-47
2022/05/29 11:21:08;;;;;;;;;14.00;12.67;;;;;22.32;48.07;100413.48;110232;1263;20346;-46
2022/05/29 11:23:35;;;;;;;;;13.67;13.67;;;;;22.34;47.97;100410.22;110251;1263;19303;-47
2022/05/29 11:26:04;;;;;;;;;10.33;10.33;;;;;22.30;47.58;100411.74;110298;1264;19801;-48
2022/05/29 11:28:31;;;;;;;;;16.67;13.00;;;;;22.28;47.56;100412.35;110213;1263;21788;-48
2022/05/29 11:30:58;;;;;;;;;9.33;9.33;;;;;22.26;47.11;100406.65;110271;1264;19288;-48
2022/05/29 11:33:26;;;;;;;;;13.00;12.33;;;;;22.21;47.30;100405.84;110297;1263;23757;-47
2022/05/29 11:35:53;;;;;;;;;12.00;10.00;;;;;22.19;47.39;100401.30;110255;1263;22157;-47